createdAt,value
2024-01-20T00:02:01.362Z,99360.34
2024-01-20T00:04:33.258Z,99365.85
2024-01-20T00:07:05.543Z,99370.46
2024-01-20T00:09:46.042Z,99371.58
2024-01-20T00:12:22.572Z,99373.17
2024-01-20T00:14:54.491Z,99372.74
2024-01-20T00:17:27.750Z,99374.74
2024-01-20T00:20:00.703Z,99374.27
2024-01-20T00:22:32.940Z,99378.73
2024-01-20T00:25:05.143Z,99375.56
2024-01-20T00:27:37.070Z,99376.60
2024-01-20T00:30:10.645Z,99380.62
2024-01-20T00:32:42.569Z,99385.19
2024-01-20T00:35:14.458Z,99382.48
2024-01-20T00:37:46.453Z,99382.07
2024-01-20T00:40:18.315Z,99388.92
2024-01-20T00:42:50.096Z,99392.21
2024-01-20T00:45:21.952Z,99394.71
2024-01-20T00:47:54.001Z,99397.48
2024-01-20T00:50:25.883Z,99397.55
2024-01-20T00:52:57.788Z,99400.02
2024-01-20T00:55:29.661Z,99401.02
2024-01-20T00:58:01.500Z,99396.61
2024-01-20T01:00:33.336Z,99399.64
2024-01-20T01:03:06.516Z,99399.68
2024-01-20T01:05:38.393Z,99406.39
2024-01-20T01:08:10.237Z,99401.69
2024-01-20T01:10:43.075Z,99406.19
2024-01-20T01:13:15.015Z,99406.14
2024-01-20T01:15:47.005Z,99404.90
2024-01-20T01:18:18.844Z,99402.34
2024-01-20T01:20:50.694Z,99408.12
2024-01-20T01:23:22.654Z,99409.73
2024-01-20T01:25:55.237Z,99414.06
2024-01-20T01:28:26.975Z,99407.50
2024-01-20T01:30:58.748Z,99405.27
2024-01-20T01:33:30.512Z,99396.86
2024-01-20T01:36:02.247Z,99392.80
2024-01-20T01:38:34.071Z,99398.80
2024-01-20T01:41:06.010Z,99399.23
2024-01-20T01:43:37.842Z,99394.95
2024-01-20T01:46:10.490Z,99396.69
2024-01-20T01:48:43.331Z,99397.92
2024-01-20T01:51:15.489Z,99403.26
2024-01-20T01:53:47.921Z,99405.30
2024-01-20T01:56:21.037Z,99414.27
2024-01-20T01:58:52.901Z,99407.98
2024-01-20T02:01:24.814Z,99406.00
2024-01-20T02:03:56.708Z,99415.04
2024-01-20T02:06:28.650Z,99416.02
2024-01-20T02:09:00.786Z,99421.61
2024-01-20T02:11:33.477Z,99425.73
2024-01-20T02:14:05.663Z,99424.55
2024-01-20T02:16:37.512Z,99422.58
2024-01-20T02:19:09.606Z,99425.11
2024-01-20T02:21:42.428Z,99428.66
2024-01-20T02:24:14.501Z,99428.95
2024-01-20T02:26:46.458Z,99434.21
2024-01-20T02:29:18.228Z,99435.59
2024-01-20T02:31:50.012Z,99434.83
2024-01-20T02:34:21.835Z,99435.31
2024-01-20T02:36:53.702Z,99429.79
2024-01-20T02:39:25.663Z,99431.83
2024-01-20T02:41:57.544Z,99429.27
2024-01-20T02:44:29.327Z,99433.39
2024-01-20T02:47:01.137Z,99438.04
2024-01-20T02:49:33.143Z,99435.96
2024-01-20T02:52:05.205Z,99436.20
2024-01-20T02:54:37.062Z,99439.08
2024-01-20T02:57:09.108Z,99441.63
2024-01-20T02:59:40.981Z,99445.13
2024-01-20T03:02:12.850Z,99442.48
2024-01-20T03:04:44.854Z,99446.98
2024-01-20T03:07:17.357Z,99445.70
2024-01-20T03:09:49.109Z,99447.90
2024-01-20T03:12:21.024Z,99447.15
2024-01-20T03:14:53.292Z,99446.66
2024-01-20T03:17:25.106Z,99440.77
2024-01-20T03:19:56.944Z,99440.41
2024-01-20T03:22:28.727Z,99440.41
2024-01-20T03:25:00.672Z,99442.77
2024-01-20T03:27:32.477Z,99433.77
2024-01-20T03:30:04.529Z,99437.48
2024-01-20T03:32:36.358Z,99437.46
2024-01-20T03:35:09.127Z,99433.11
2024-01-20T03:37:40.900Z,99434.50
2024-01-20T03:40:13.231Z,99433.93
2024-01-20T03:42:44.980Z,99430.35
2024-01-20T03:45:16.834Z,99431.98
2024-01-20T03:47:48.654Z,99431.79
2024-01-20T03:50:20.564Z,99438.46
2024-01-20T03:52:52.452Z,99438.02
2024-01-20T03:55:24.239Z,99439.90
2024-01-20T03:57:55.996Z,99441.10
2024-01-20T04:00:27.920Z,99440.53
2024-01-20T04:02:59.738Z,99441.58
2024-01-20T04:05:31.640Z,99446.60
2024-01-20T04:08:03.453Z,99451.50
2024-01-20T04:10:35.308Z,99456.91
2024-01-20T04:13:07.241Z,99465.99
2024-01-20T04:15:39.092Z,99468.75
2024-01-20T04:18:11.283Z,99468.23
2024-01-20T04:20:44.082Z,99465.70
2024-01-20T04:23:15.983Z,99468.20
2024-01-20T04:25:47.737Z,99465.69
2024-01-20T04:28:19.492Z,99466.36
2024-01-20T04:30:51.781Z,99462.16
2024-01-20T04:33:23.619Z,99466.36
2024-01-20T04:35:55.582Z,99469.51
2024-01-20T04:38:28.052Z,99472.54
2024-01-20T04:40:59.832Z,99473.84
2024-01-20T04:43:32.329Z,99477.05
2024-01-20T04:46:04.096Z,99480.09
2024-01-20T04:48:36.047Z,99480.66
2024-01-20T04:51:08.301Z,99483.75
2024-01-20T04:53:40.096Z,99487.72
2024-01-20T04:56:11.980Z,99488.25
2024-01-20T04:58:43.776Z,99488.05
2024-01-20T05:01:15.639Z,99484.58
2024-01-20T05:03:47.767Z,99487.89
2024-01-20T05:06:19.680Z,99491.05
2024-01-20T05:08:51.595Z,99494.23
2024-01-20T05:11:23.555Z,99499.58
2024-01-20T05:13:55.328Z,99501.08
2024-01-20T05:16:27.106Z,99507.06
2024-01-20T05:18:59.145Z,99505.93
2024-01-20T05:21:31.128Z,99507.48
2024-01-20T05:24:02.907Z,99513.00
2024-01-20T05:26:34.756Z,99519.96
2024-01-20T05:29:06.543Z,99518.30
2024-01-20T05:31:38.353Z,99518.16
2024-01-20T05:34:10.221Z,99524.14
2024-01-20T05:36:42.171Z,99525.52
2024-01-20T05:39:13.956Z,99526.14
2024-01-20T05:41:45.877Z,99523.13
2024-01-20T05:44:17.717Z,99528.31
2024-01-20T05:46:49.455Z,99524.65
2024-01-20T05:49:21.318Z,99527.89
2024-01-20T05:51:53.140Z,99527.13
2024-01-20T05:54:24.990Z,99532.76
2024-01-20T05:56:56.792Z,99530.34
2024-01-20T05:59:28.557Z,99534.15
2024-01-20T06:02:00.391Z,99539.46
2024-01-20T06:04:32.202Z,99544.55
2024-01-20T06:07:04.074Z,99547.33
2024-01-20T06:09:37.390Z,99549.79
2024-01-20T06:12:10.725Z,99552.12
2024-01-20T06:14:41.415Z,99557.95
2024-01-20T06:17:13.228Z,99561.53
2024-01-20T06:19:44.977Z,99563.48
2024-01-20T06:22:16.834Z,99562.27
2024-01-20T06:24:48.613Z,99563.88
2024-01-20T06:27:20.463Z,99562.91
2024-01-20T06:29:52.292Z,99566.16
2024-01-20T06:32:24.149Z,99571.52
2024-01-20T06:34:55.939Z,99569.39
2024-01-20T06:37:27.695Z,99566.86
2024-01-20T06:39:59.439Z,99567.30
2024-01-20T06:42:31.286Z,99564.16
2024-01-20T06:45:03.650Z,99565.23
2024-01-20T06:47:35.671Z,99567.39
2024-01-20T06:50:09.659Z,99571.73
2024-01-20T06:52:43.423Z,99572.41
2024-01-20T06:55:15.501Z,99580.48
2024-01-20T06:57:47.333Z,99577.23
2024-01-20T07:00:20.091Z,99584.11
2024-01-20T07:02:50.903Z,99589.08
2024-01-20T07:05:22.742Z,99589.95
2024-01-20T07:07:54.514Z,99585.95
2024-01-20T07:10:26.277Z,99587.48
2024-01-20T07:12:58.103Z,99589.52
2024-01-20T07:15:29.888Z,99587.59
2024-01-20T07:18:01.756Z,99591.02
2024-01-20T07:20:33.524Z,99596.91
2024-01-20T07:23:05.512Z,99601.27
2024-01-20T07:25:38.028Z,99608.58
2024-01-20T07:28:09.968Z,99613.90
2024-01-20T07:30:41.831Z,99617.14
2024-01-20T07:33:13.713Z,99620.80
2024-01-20T07:35:45.652Z,99618.11
2024-01-20T07:38:18.230Z,99614.23
2024-01-20T07:40:50.030Z,99614.94
2024-01-20T07:43:22.120Z,99618.68
2024-01-20T07:45:55.349Z,99616.05
2024-01-20T07:48:27.909Z,99619.42
2024-01-20T07:50:59.849Z,99618.09
2024-01-20T07:53:31.676Z,99621.86
2024-01-20T07:56:03.451Z,99617.05
2024-01-20T07:58:35.217Z,99622.23
2024-01-20T08:01:07.323Z,99624.25
2024-01-20T08:03:39.206Z,99626.55
2024-01-20T08:06:11.126Z,99622.71
2024-01-20T08:08:43.706Z,99625.54
2024-01-20T08:11:15.696Z,99628.15
2024-01-20T08:13:47.543Z,99631.99
2024-01-20T08:16:19.339Z,99634.00
2024-01-20T08:18:51.264Z,99635.20
2024-01-20T08:21:25.793Z,99641.90
2024-01-20T08:23:57.645Z,99649.29
2024-01-20T08:26:29.541Z,99647.50
2024-01-20T08:29:01.457Z,99651.04
2024-01-20T08:31:33.238Z,99654.30
2024-01-20T08:34:05.277Z,99650.84
2024-01-20T08:36:37.097Z,99653.94
2024-01-20T08:39:09.667Z,99652.98
2024-01-20T08:41:42.012Z,99657.56
2024-01-20T08:44:13.757Z,99664.05
2024-01-20T08:46:46.570Z,99666.30
2024-01-20T08:49:18.502Z,99669.63
2024-01-20T08:51:50.333Z,99670.05
2024-01-20T08:54:22.127Z,99673.02
2024-01-20T08:56:53.908Z,99675.06
2024-01-20T08:59:25.683Z,99679.85
2024-01-20T09:01:57.411Z,99681.10
2024-01-20T09:04:29.199Z,99690.27
2024-01-20T09:07:01.019Z,99695.58
2024-01-20T09:09:32.970Z,99699.75
2024-01-20T09:12:05.208Z,99694.27
2024-01-20T09:14:37.518Z,99690.44
2024-01-20T09:17:09.361Z,99695.52
2024-01-20T09:19:41.287Z,99693.30
2024-01-20T09:22:13.124Z,99693.89
2024-01-20T09:24:44.893Z,99696.98
2024-01-20T09:27:18.178Z,99691.56
2024-01-20T09:29:50.010Z,99695.86
2024-01-20T09:32:22.225Z,99697.54
2024-01-20T09:34:54.029Z,99694.35
2024-01-20T09:37:25.823Z,99696.65
2024-01-20T09:39:58.364Z,99694.44
2024-01-20T09:42:30.655Z,99696.03
2024-01-20T09:45:03.205Z,99696.95
2024-01-20T09:47:35.096Z,99694.04
2024-01-20T09:50:08.130Z,99690.71
2024-01-20T09:52:49.870Z,99682.55
2024-01-20T09:55:24.838Z,99689.03
2024-01-20T09:57:57.314Z,99694.20
2024-01-20T10:00:29.524Z,99691.77
2024-01-20T10:03:06.752Z,99688.68
2024-01-20T10:05:39.619Z,99687.23
2024-01-20T10:08:12.285Z,99684.71
2024-01-20T10:10:44.153Z,99689.95
2024-01-20T10:13:16.766Z,99685.50
2024-01-20T10:15:48.674Z,99684.42
2024-01-20T10:18:20.555Z,99680.85
2024-01-20T10:21:02.086Z,99681.27
2024-01-20T10:23:35.517Z,99680.61
2024-01-20T10:26:06.698Z,99678.92
2024-01-20T10:28:38.588Z,99682.02
2024-01-20T10:31:11.076Z,99684.70
2024-01-20T10:33:43.083Z,99677.19
2024-01-20T10:36:18.375Z,99673.55
2024-01-20T10:38:54.496Z,99672.38
2024-01-20T10:41:27.113Z,99673.36
2024-01-20T10:44:03.899Z,99675.59
2024-01-20T10:46:41.570Z,99668.61
2024-01-20T10:49:19.931Z,99666.98
2024-01-20T10:51:53.506Z,99670.80
2024-01-20T10:54:26.195Z,99669.71
2024-01-20T10:56:58.352Z,99670.54
2024-01-20T10:59:32.794Z,99667.09
2024-01-20T11:02:06.110Z,99659.45
2024-01-20T11:04:39.536Z,99656.81
2024-01-20T11:07:13.257Z,99651.96
2024-01-20T11:09:55.042Z,99651.92
2024-01-20T11:12:27.565Z,99642.74
2024-01-20T11:15:00.469Z,99649.96
2024-01-20T11:17:32.503Z,99648.14
2024-01-20T11:20:15.041Z,99640.30
2024-01-20T11:22:48.702Z,99641.45
2024-01-20T11:25:20.695Z,99635.98
2024-01-20T11:27:55.231Z,99637.92
2024-01-20T11:30:31.480Z,99634.95
2024-01-20T11:33:04.371Z,99635.55
2024-01-20T11:35:39.685Z,99628.79
2024-01-20T11:38:12.100Z,99622.69
2024-01-20T11:40:44.113Z,99620.00
2024-01-20T11:43:15.888Z,99616.92
2024-01-20T11:45:47.658Z,99613.77
2024-01-20T11:48:22.667Z,99614.84
2024-01-20T11:50:54.790Z,99607.73
2024-01-20T11:53:26.686Z,99607.84
2024-01-20T11:56:01.025Z,99611.36
2024-01-20T11:58:33.244Z,99614.15
2024-01-20T12:01:05.718Z,99618.10
2024-01-20T12:03:38.015Z,99613.95
2024-01-20T12:06:13.882Z,99616.69
2024-01-20T12:08:47.848Z,99621.66
2024-01-20T12:11:24.004Z,99615.30
2024-01-20T12:13:55.786Z,99619.30
2024-01-20T12:16:27.682Z,99613.36
2024-01-20T12:18:59.584Z,99616.23
2024-01-20T12:21:31.525Z,99615.30
2024-01-20T12:24:03.955Z,99619.70
2024-01-20T12:26:36.177Z,99622.63
2024-01-20T12:29:07.949Z,99624.25
2024-01-20T12:31:39.730Z,99621.56
2024-01-20T12:34:11.632Z,99621.85
2024-01-20T12:36:43.476Z,99620.68
2024-01-20T12:39:16.738Z,99623.60
2024-01-20T12:41:48.893Z,99619.83
2024-01-20T12:44:21.609Z,99625.64
2024-01-20T12:46:53.883Z,99627.48
2024-01-20T12:49:26.193Z,99623.83
2024-01-20T12:51:58.356Z,99626.30
2024-01-20T12:54:30.323Z,99624.88
2024-01-20T12:57:02.258Z,99623.63
2024-01-20T12:59:34.622Z,99621.13
2024-01-20T13:02:06.752Z,99617.30
2024-01-20T13:04:40.705Z,99613.89
2024-01-20T13:07:14.954Z,99614.65
2024-01-20T13:09:48.200Z,99613.81
2024-01-20T13:12:20.037Z,99615.29
2024-01-20T13:14:51.839Z,99615.52
2024-01-20T13:17:23.585Z,99614.30
2024-01-20T13:19:55.481Z,99609.29
2024-01-20T13:22:27.838Z,99610.77
2024-01-20T13:25:00.219Z,99611.11
2024-01-20T13:27:32.060Z,99616.59
2024-01-20T13:30:03.990Z,99621.06
2024-01-20T13:32:36.302Z,99625.98
2024-01-20T13:35:09.785Z,99627.98
2024-01-20T13:37:41.700Z,99635.54
2024-01-20T13:40:15.018Z,99636.88
2024-01-20T13:42:46.947Z,99630.55
2024-01-20T13:45:18.852Z,99641.48
2024-01-20T13:47:50.739Z,99641.59
2024-01-20T13:50:25.571Z,99636.96
2024-01-20T13:52:58.022Z,99633.16
2024-01-20T13:55:29.909Z,99633.52
2024-01-20T13:58:01.664Z,99635.55
2024-01-20T14:00:33.685Z,99639.77
2024-01-20T14:03:06.219Z,99638.55
2024-01-20T14:05:38.282Z,99646.67
2024-01-20T14:08:10.300Z,99653.16
2024-01-20T14:10:42.468Z,99653.42
2024-01-20T14:13:14.289Z,99650.55
2024-01-20T14:15:46.155Z,99652.79
2024-01-20T14:18:18.112Z,99657.23
2024-01-20T14:20:50.093Z,99659.27
2024-01-20T14:23:23.258Z,99659.02
2024-01-20T14:25:55.132Z,99655.71
2024-01-20T14:28:27.145Z,99654.05
2024-01-20T14:30:58.908Z,99658.60
2024-01-20T14:33:30.867Z,99657.66
2024-01-20T14:36:03.071Z,99662.21
2024-01-20T14:38:35.562Z,99662.87
2024-01-20T14:41:08.025Z,99671.75
2024-01-20T14:43:40.208Z,99674.19
2024-01-20T14:46:11.967Z,99678.32
2024-01-20T14:48:43.951Z,99682.84
2024-01-20T14:51:16.511Z,99685.98
2024-01-20T14:53:48.366Z,99688.90
2024-01-20T14:56:20.209Z,99693.48
2024-01-20T14:58:52.002Z,99687.02
2024-01-20T15:01:24.469Z,99687.16
2024-01-20T15:03:56.504Z,99687.71
2024-01-20T15:06:29.630Z,99693.05
2024-01-20T15:09:01.755Z,99701.17
2024-01-20T15:11:33.615Z,99698.54
2024-01-20T15:14:08.776Z,99698.38
2024-01-20T15:16:40.574Z,99696.77
2024-01-20T15:19:12.527Z,99706.41
2024-01-20T15:21:44.516Z,99707.02
2024-01-20T15:24:16.488Z,99709.06
2024-01-20T15:26:48.669Z,99711.79
2024-01-20T15:29:20.454Z,99723.14
2024-01-20T15:31:52.438Z,99729.91
2024-01-20T15:34:24.325Z,99727.77
2024-01-20T15:36:56.369Z,99733.42
2024-01-20T15:39:28.237Z,99736.77
2024-01-20T15:42:00.070Z,99740.83
2024-01-20T15:44:32.004Z,99733.39
2024-01-20T15:47:03.829Z,99733.95
2024-01-20T15:49:35.709Z,99740.55
2024-01-20T15:52:07.841Z,99735.50
2024-01-20T15:54:39.776Z,99742.09
2024-01-20T15:57:11.640Z,99744.96
2024-01-20T15:59:43.383Z,99743.62
2024-01-20T16:02:15.149Z,99739.55
2024-01-20T16:04:46.941Z,99741.64
2024-01-20T16:07:18.784Z,99747.33
2024-01-20T16:09:50.688Z,99744.31
2024-01-20T16:12:22.527Z,99748.11
2024-01-20T16:14:54.385Z,99753.42
2024-01-20T16:17:26.279Z,99757.70
2024-01-20T16:19:58.111Z,99762.35
2024-01-20T16:22:31.086Z,99766.99
2024-01-20T16:25:05.163Z,99775.34
2024-01-20T16:27:37.069Z,99778.05
2024-01-20T16:30:10.488Z,99774.33
2024-01-20T16:32:40.951Z,99778.39
2024-01-20T16:35:14.366Z,99784.48
2024-01-20T16:37:46.137Z,99783.52
2024-01-20T16:40:18.054Z,99784.77
2024-01-20T16:42:49.947Z,99791.95
2024-01-20T16:45:21.819Z,99793.91
2024-01-20T16:47:56.011Z,99797.24
2024-01-20T16:50:28.172Z,99800.22
2024-01-20T16:53:03.556Z,99800.66
2024-01-20T16:55:36.306Z,99807.83
2024-01-20T16:58:08.269Z,99810.27
2024-01-20T17:00:40.159Z,99814.73
2024-01-20T17:03:12.050Z,99809.23
2024-01-20T17:05:44.063Z,99810.32
2024-01-20T17:08:15.822Z,99804.81
2024-01-20T17:10:47.605Z,99812.17
2024-01-20T17:13:19.369Z,99819.86
2024-01-20T17:15:51.138Z,99818.27
2024-01-20T17:18:23.043Z,99822.30
2024-01-20T17:20:54.873Z,99826.00
2024-01-20T17:23:26.989Z,99824.52
2024-01-20T17:25:58.791Z,99834.52
2024-01-20T17:28:31.093Z,99836.48
2024-01-20T17:31:02.963Z,99844.91
2024-01-20T17:33:35.080Z,99842.36
2024-01-20T17:36:08.071Z,99847.67
2024-01-20T17:38:40.490Z,99848.58
2024-01-20T17:41:12.265Z,99858.48
2024-01-20T17:43:44.169Z,99860.20
2024-01-20T17:46:16.069Z,99864.50
2024-01-20T17:48:49.598Z,99865.27
2024-01-20T17:51:21.496Z,99863.90
2024-01-20T17:53:53.307Z,99867.18
2024-01-20T17:56:25.112Z,99869.29
2024-01-20T17:58:56.966Z,99873.86
2024-01-20T18:01:29.155Z,99876.33
2024-01-20T18:04:01.643Z,99880.61
2024-01-20T18:06:33.759Z,99886.98
2024-01-20T18:09:06.116Z,99888.88
2024-01-20T18:11:37.960Z,99890.81
2024-01-20T18:14:09.713Z,99894.44
2024-01-20T18:16:42.007Z,99895.34
2024-01-20T18:19:13.854Z,99898.04
2024-01-20T18:21:48.860Z,99909.03
2024-01-20T18:24:20.682Z,99914.38
2024-01-20T18:26:52.493Z,99915.52
2024-01-20T18:29:24.280Z,99927.15
2024-01-20T18:31:57.582Z,99933.14
2024-01-20T18:34:29.577Z,99929.85
2024-01-20T18:37:01.713Z,99929.40
2024-01-20T18:39:34.710Z,99930.27
2024-01-20T18:42:07.105Z,99938.46
2024-01-20T18:44:38.920Z,99929.38
2024-01-20T18:47:11.245Z,99931.27
2024-01-20T18:49:43.136Z,99928.55
2024-01-20T18:52:15.000Z,99933.81
2024-01-20T18:54:46.799Z,99939.33
2024-01-20T18:57:19.540Z,99937.58
2024-01-20T18:59:51.349Z,99941.27
2024-01-20T19:02:23.535Z,99941.90
2024-01-20T19:04:55.465Z,99947.84
2024-01-20T19:07:27.592Z,99943.60
2024-01-20T19:09:59.474Z,99944.21
2024-01-20T19:12:31.290Z,99938.04
2024-01-20T19:15:07.245Z,99941.58
2024-01-20T19:17:41.042Z,99946.48
2024-01-20T19:20:13.384Z,99949.96
2024-01-20T19:22:45.165Z,99954.83
2024-01-20T19:25:17.081Z,99955.15
2024-01-20T19:27:49.698Z,99952.08
2024-01-20T19:30:23.180Z,99952.67
2024-01-20T19:32:55.904Z,99956.33
2024-01-20T19:35:27.844Z,99955.80
2024-01-20T19:38:02.143Z,99955.60
2024-01-20T19:40:33.917Z,99959.59
2024-01-20T19:43:05.746Z,99958.48
2024-01-20T19:45:37.625Z,99961.86
2024-01-20T19:48:10.535Z,99962.10
2024-01-20T19:50:42.501Z,99965.23
2024-01-20T19:53:14.286Z,99965.02
2024-01-20T19:55:46.220Z,99971.09
2024-01-20T19:58:18.025Z,99968.91
2024-01-20T20:00:51.273Z,99972.34
2024-01-20T20:03:21.765Z,99980.00
2024-01-20T20:05:53.668Z,99978.81
2024-01-20T20:08:25.604Z,99981.32
2024-01-20T20:10:57.608Z,99983.02
2024-01-20T20:13:30.728Z,99987.45
2024-01-20T20:16:02.527Z,99981.24
2024-01-20T20:18:34.620Z,99985.33
2024-01-20T20:21:06.630Z,99983.66
2024-01-20T20:23:38.400Z,99987.41
2024-01-20T20:26:10.707Z,99990.97
2024-01-20T20:28:43.064Z,99988.70
2024-01-20T20:31:17.398Z,100001.02
2024-01-20T20:33:49.431Z,99997.14
2024-01-20T20:36:23.804Z,99991.18
2024-01-20T20:38:55.623Z,99996.84
2024-01-20T20:41:27.423Z,99992.13
2024-01-20T20:43:59.194Z,99993.35
2024-01-20T20:46:31.089Z,99995.27
2024-01-20T20:49:03.060Z,99994.13
2024-01-20T20:51:34.936Z,99994.89
2024-01-20T20:54:06.802Z,99998.61
2024-01-20T20:56:38.587Z,99998.75
2024-01-20T20:59:10.361Z,100001.32
2024-01-20T21:01:44.059Z,100002.54
2024-01-20T21:04:16.187Z,99999.16
2024-01-20T21:06:48.017Z,100005.16
2024-01-20T21:09:20.951Z,100010.61
2024-01-20T21:11:52.664Z,100012.75
2024-01-20T21:14:24.397Z,100009.91
2024-01-20T21:16:56.177Z,100012.82
2024-01-20T21:19:28.155Z,100013.50
2024-01-20T21:21:59.953Z,100018.13
2024-01-20T21:24:32.952Z,100014.63
2024-01-20T21:27:05.296Z,100012.14
2024-01-20T21:29:37.049Z,100011.54
2024-01-20T21:32:09.654Z,100015.29
2024-01-20T21:34:41.516Z,100016.13
2024-01-20T21:37:13.345Z,100020.94
2024-01-20T21:39:45.223Z,100023.60
2024-01-20T21:42:17.589Z,100019.58
2024-01-20T21:44:49.429Z,100016.11
2024-01-20T21:47:21.374Z,100023.23
2024-01-20T21:49:53.096Z,100027.73
2024-01-20T21:52:24.942Z,100028.83
2024-01-20T21:54:57.020Z,100028.98
2024-01-20T21:57:29.862Z,100033.95
2024-01-20T22:00:01.844Z,100037.16
2024-01-20T22:02:34.496Z,100034.83
2024-01-20T22:05:07.892Z,100035.17
2024-01-20T22:07:38.109Z,100031.70
2024-01-20T22:10:11.418Z,100034.67
2024-01-20T22:12:43.253Z,100038.18
2024-01-20T22:15:15.414Z,100043.39
2024-01-20T22:17:47.380Z,100042.59
2024-01-20T22:20:19.458Z,100047.96
2024-01-20T22:22:52.601Z,100059.23
2024-01-20T22:25:24.428Z,100068.01
2024-01-20T22:27:56.513Z,100071.56
2024-01-20T22:30:28.420Z,100071.31
2024-01-20T22:33:01.943Z,100074.64
2024-01-20T22:35:32.285Z,100071.16
2024-01-20T22:38:04.075Z,100076.83
2024-01-20T22:40:35.786Z,100079.41
2024-01-20T22:43:07.733Z,100075.17
2024-01-20T22:45:39.521Z,100075.90
2024-01-20T22:48:11.991Z,100080.85
2024-01-20T22:50:44.003Z,100081.77
2024-01-20T22:53:15.717Z,100087.10
2024-01-20T22:55:47.527Z,100090.77
2024-01-20T22:58:19.355Z,100091.35
2024-01-20T23:00:51.229Z,100091.66
2024-01-20T23:03:23.145Z,100093.59
2024-01-20T23:05:54.927Z,100091.75
2024-01-20T23:08:26.656Z,100097.90
2024-01-20T23:10:58.360Z,100095.27
2024-01-20T23:13:30.134Z,100096.41
2024-01-20T23:16:01.820Z,100093.81
2024-01-20T23:18:33.628Z,100099.53
2024-01-20T23:21:05.397Z,100104.92
2024-01-20T23:23:37.108Z,100108.27
2024-01-20T23:26:10.610Z,100104.13
2024-01-20T23:28:41.069Z,100105.64
2024-01-20T23:31:13.080Z,100106.30
2024-01-20T23:33:44.946Z,100107.21
2024-01-20T23:36:16.735Z,100110.86
2024-01-20T23:38:48.482Z,100117.27
2024-01-20T23:41:20.216Z,100112.02
2024-01-20T23:43:51.945Z,100112.89
2024-01-20T23:46:23.668Z,100110.58
2024-01-20T23:48:55.435Z,100108.30
2024-01-20T23:51:27.255Z,100118.31
2024-01-20T23:53:58.984Z,100124.22
2024-01-20T23:56:30.739Z,100120.01
2024-01-20T23:59:03.317Z,100119.45
